createdAt,value
2023-02-11T00:01:33.784Z,14.50
2023-02-11T00:04:35.081Z,17.25
2023-02-11T00:07:36.495Z,21.35
2023-02-11T00:10:37.776Z,13.02
2023-02-11T00:13:39.195Z,13.10
2023-02-11T00:16:40.721Z,12.40
2023-02-11T00:19:42.260Z,15.82
2023-02-11T00:22:43.729Z,16.90
2023-02-11T00:25:45.566Z,15.55
2023-02-11T00:28:47.552Z,10.70
2023-02-11T00:31:49.128Z,16.40
2023-02-11T00:34:52.267Z,15.35
2023-02-11T00:37:53.942Z,19.77
2023-02-11T00:40:55.240Z,17.35
2023-02-11T00:43:56.669Z,13.05
2023-02-11T00:46:57.966Z,14.73
2023-02-11T00:50:00.927Z,14.35
2023-02-11T00:53:02.251Z,14.95
2023-02-11T00:56:03.690Z,12.63
2023-02-11T00:59:04.995Z,17.25
2023-02-11T01:02:06.468Z,14.70
2023-02-11T01:05:08.217Z,12.85
2023-02-11T01:08:09.544Z,12.65
2023-02-11T01:11:12.779Z,11.60
2023-02-11T01:14:14.106Z,11.95
2023-02-11T01:17:15.473Z,13.07
2023-02-11T01:20:18.724Z,9.63
2023-02-11T01:23:20.409Z,7.40
2023-02-11T01:26:21.752Z,13.43
2023-02-11T01:29:23.051Z,12.13
2023-02-11T01:32:24.300Z,19.40
2023-02-11T01:35:25.583Z,21.85
2023-02-11T01:38:26.886Z,15.93
2023-02-11T01:41:28.137Z,12.20
2023-02-11T01:44:39.098Z,19.33
2023-02-11T01:47:40.487Z,13.00
2023-02-11T01:50:42.893Z,14.88
2023-02-11T01:54:05.295Z,13.93
2023-02-11T01:57:25.291Z,11.32
2023-02-11T02:00:33.758Z,9.65
2023-02-11T02:03:36.634Z,11.23
2023-02-11T02:06:43.300Z,16.80
2023-02-11T02:09:48.870Z,12.50
2023-02-11T02:12:50.120Z,11.52
2023-02-11T02:15:55.708Z,12.40
2023-02-11T02:19:15.942Z,12.38
2023-02-11T02:22:40.376Z,10.95
2023-02-11T02:25:50.820Z,12.15
2023-02-11T02:29:03.967Z,15.55
2023-02-11T02:32:24.218Z,13.82
2023-02-11T02:35:36.174Z,15.98
2023-02-11T02:38:40.842Z,12.93
2023-02-11T02:41:42.673Z,12.43
2023-02-11T02:44:50.466Z,15.30
2023-02-11T02:47:51.750Z,14.38
2023-02-11T02:50:57.639Z,18.95
2023-02-11T02:53:58.870Z,9.70
2023-02-11T02:57:15.177Z,13.90
2023-02-11T03:00:19.333Z,9.68
2023-02-11T03:03:29.972Z,10.88
2023-02-11T03:06:50.130Z,9.18
2023-02-11T03:09:54.939Z,15.15
2023-02-11T03:12:56.899Z,15.75
2023-02-11T03:15:59.600Z,14.10
2023-02-11T03:19:05.294Z,14.13
2023-02-11T03:22:08.571Z,10.93
2023-02-11T03:25:10.130Z,13.05
2023-02-11T03:28:19.757Z,12.02
2023-02-11T03:31:30.860Z,14.90
2023-02-11T03:34:38.221Z,17.23
2023-02-11T03:37:49.206Z,9.50
2023-02-11T03:40:51.254Z,15.05
2023-02-11T03:43:54.236Z,10.27
2023-02-11T03:46:55.835Z,13.23
2023-02-11T03:49:57.990Z,13.50
2023-02-11T03:53:00.862Z,11.93
2023-02-11T03:56:04.958Z,11.75
2023-02-11T03:59:06.243Z,15.75
2023-02-11T04:02:07.506Z,15.05
2023-02-11T04:05:10.553Z,14.63
2023-02-11T04:08:11.854Z,13.05
2023-02-11T04:11:13.226Z,12.23
2023-02-11T04:14:14.471Z,12.85
2023-02-11T04:17:15.747Z,12.48
2023-02-11T04:20:17.073Z,13.27
2023-02-11T04:23:18.337Z,12.20
2023-02-11T04:26:19.668Z,11.10
2023-02-11T04:29:20.921Z,16.48
2023-02-11T04:32:22.233Z,11.18
2023-02-11T04:35:23.484Z,11.05
2023-02-11T04:38:24.799Z,10.60
2023-02-11T04:41:26.090Z,13.00
2023-02-11T04:44:27.385Z,13.32
2023-02-11T04:47:29.698Z,8.52
2023-02-11T04:50:30.977Z,14.82
2023-02-11T04:53:32.342Z,16.70
2023-02-11T04:56:33.641Z,18.02
2023-02-11T04:59:34.927Z,11.10
2023-02-11T05:02:36.477Z,11.13
2023-02-11T05:05:38.531Z,14.98
2023-02-11T05:08:40.023Z,11.10
2023-02-11T05:11:41.353Z,10.48
2023-02-11T05:14:42.650Z,12.70
2023-02-11T05:17:43.932Z,17.85
2023-02-11T05:20:45.218Z,9.65
2023-02-11T05:23:46.903Z,13.98
2023-02-11T05:26:48.195Z,11.10
2023-02-11T05:29:49.456Z,20.08
2023-02-11T05:32:50.733Z,7.95
2023-02-11T05:35:52.359Z,10.20
2023-02-11T05:38:53.757Z,16.23
2023-02-11T05:41:55.028Z,15.80
2023-02-11T05:44:56.302Z,12.20
2023-02-11T05:47:57.635Z,6.75
2023-02-11T05:50:58.880Z,10.48
2023-02-11T05:54:00.125Z,17.80
2023-02-11T05:57:01.412Z,16.15
2023-02-11T06:00:04.168Z,12.18
2023-02-11T06:03:05.483Z,15.43
2023-02-11T06:06:09.764Z,13.25
2023-02-11T06:09:11.781Z,11.18
2023-02-11T06:12:13.085Z,11.02
2023-02-11T06:15:14.375Z,9.07
2023-02-11T06:18:15.614Z,8.48
2023-02-11T06:21:16.943Z,10.60
2023-02-11T06:24:38.407Z,18.02
2023-02-11T06:27:39.492Z,11.43
2023-02-11T06:30:40.825Z,13.30
2023-02-11T06:33:42.482Z,12.50
2023-02-11T06:36:44.078Z,18.02
2023-02-11T06:39:45.515Z,14.63
2023-02-11T06:42:46.784Z,11.27
2023-02-11T06:45:54.463Z,13.63
2023-02-11T06:48:55.874Z,10.73
2023-02-11T06:51:57.143Z,16.75
2023-02-11T06:54:58.388Z,13.55
2023-02-11T06:57:59.681Z,21.83
2023-02-11T07:01:03.636Z,14.38
2023-02-11T07:04:04.930Z,15.07
2023-02-11T07:07:06.276Z,8.35
2023-02-11T07:10:08.354Z,12.35
2023-02-11T07:13:09.623Z,14.23
2023-02-11T07:16:15.454Z,19.55
2023-02-11T07:19:17.476Z,31.92
2023-02-11T07:22:18.735Z,13.68
2023-02-11T07:25:19.963Z,12.25
2023-02-11T07:28:21.267Z,15.00
2023-02-11T07:31:26.579Z,14.40
2023-02-11T07:34:28.090Z,8.98
2023-02-11T07:37:29.438Z,12.07
2023-02-11T07:40:31.542Z,14.70
2023-02-11T07:43:33.312Z,12.20
2023-02-11T07:46:35.683Z,10.38
2023-02-11T07:49:37.070Z,17.15
2023-02-11T07:52:38.324Z,16.50
2023-02-11T07:55:39.607Z,12.60
2023-02-11T07:58:43.883Z,15.38
2023-02-11T08:01:45.466Z,14.27
2023-02-11T08:04:47.136Z,11.50
2023-02-11T08:07:50.788Z,10.70
2023-02-11T08:10:52.317Z,8.68
2023-02-11T08:13:54.399Z,14.43
2023-02-11T08:16:55.787Z,14.32
2023-02-11T08:19:57.172Z,14.35
2023-02-11T08:22:59.092Z,21.77
2023-02-11T08:26:03.902Z,10.95
2023-02-11T08:29:09.923Z,10.27
2023-02-11T08:32:11.251Z,20.50
2023-02-11T08:35:12.662Z,11.57
2023-02-11T08:38:13.896Z,18.70
2023-02-11T08:41:15.772Z,19.52
2023-02-11T08:44:17.829Z,15.65
2023-02-11T08:47:19.117Z,9.82
2023-02-11T08:50:20.404Z,18.02
2023-02-11T08:53:21.689Z,12.70
2023-02-11T08:56:23.532Z,11.10
2023-02-11T08:59:24.843Z,13.85
2023-02-11T09:02:26.157Z,15.05
2023-02-11T09:05:27.607Z,9.32
2023-02-11T09:08:28.911Z,6.93
2023-02-11T09:11:32.167Z,16.20
2023-02-11T09:14:33.492Z,36.60
2023-02-11T09:17:34.804Z,10.20
2023-02-11T09:20:36.106Z,14.48
2023-02-11T09:23:37.592Z,22.98
2023-02-11T09:26:40.924Z,14.20
2023-02-11T09:29:42.275Z,18.95
2023-02-11T09:32:43.577Z,20.05
2023-02-11T09:35:44.855Z,16.15
2023-02-11T09:38:46.663Z,23.38
2023-02-11T09:42:06.233Z,26.75
2023-02-11T09:45:12.637Z,27.15
2023-02-11T09:48:15.954Z,20.38
2023-02-11T09:51:20.524Z,19.13
2023-02-11T09:54:30.319Z,17.88
2023-02-11T09:57:33.350Z,22.48
2023-02-11T10:00:40.059Z,19.38
2023-02-11T10:03:52.364Z,21.52
2023-02-11T10:06:57.475Z,19.63
2023-02-11T10:10:03.978Z,22.60
2023-02-11T10:13:08.028Z,16.02
2023-02-11T10:16:09.374Z,18.13
2023-02-11T10:19:13.961Z,16.60
2023-02-11T10:25:27.377Z,16.52
2023-02-11T10:28:34.984Z,18.63
2023-02-11T10:31:39.728Z,17.48
2023-02-11T10:34:41.284Z,14.10
2023-02-11T10:37:44.520Z,23.27
2023-02-11T10:40:45.937Z,21.90
2023-02-11T10:43:47.197Z,21.58
2023-02-11T10:46:49.212Z,21.95
2023-02-11T10:49:50.542Z,17.38
2023-02-11T10:52:51.911Z,21.80
2023-02-11T10:55:54.705Z,19.33
2023-02-11T10:58:55.975Z,17.27
2023-02-11T11:02:00.551Z,16.92
2023-02-11T11:05:18.758Z,21.02
2023-02-11T11:08:20.248Z,20.23
2023-02-11T11:11:22.475Z,21.02
2023-02-11T11:14:28.743Z,21.80
2023-02-11T11:17:30.181Z,17.30
2023-02-11T11:20:36.177Z,20.00
2023-02-11T11:23:38.068Z,21.42
2023-02-11T11:26:44.138Z,20.83
2023-02-11T11:29:55.913Z,19.40
2023-02-11T11:32:57.854Z,19.35
2023-02-11T11:36:02.878Z,23.60
2023-02-11T11:39:17.494Z,21.00
2023-02-11T11:42:29.027Z,19.17
2023-02-11T11:45:30.439Z,20.35
2023-02-11T11:48:35.232Z,20.13
2023-02-11T11:51:39.181Z,19.45
2023-02-11T11:54:42.440Z,14.23
2023-02-11T11:57:43.820Z,16.35
2023-02-11T12:00:59.319Z,19.48
2023-02-11T12:04:06.700Z,15.73
2023-02-11T12:07:17.309Z,11.88
2023-02-11T12:10:27.784Z,19.58
2023-02-11T12:13:38.677Z,15.50
2023-02-11T12:16:43.482Z,15.75
2023-02-11T12:20:00.236Z,17.35
2023-02-11T12:23:18.658Z,18.60
2023-02-11T12:26:24.260Z,16.23
2023-02-11T12:29:28.407Z,16.30
2023-02-11T12:32:36.392Z,15.15
2023-02-11T12:35:43.855Z,15.63
2023-02-11T12:38:48.184Z,13.40
2023-02-11T12:42:26.756Z,15.27
2023-02-11T12:45:33.747Z,18.25
2023-02-11T12:48:39.462Z,19.00
2023-02-11T12:51:46.688Z,14.90
2023-02-11T12:55:00.605Z,16.27
2023-02-11T12:58:02.128Z,14.70
2023-02-11T13:01:32.597Z,13.77
2023-02-11T13:04:43.055Z,17.48
2023-02-11T13:07:46.345Z,18.77
2023-02-11T13:10:50.406Z,12.57
2023-02-11T13:13:51.940Z,13.70
2023-02-11T13:16:54.032Z,15.10
2023-02-11T13:19:59.623Z,12.88
2023-02-11T13:23:24.272Z,13.32
2023-02-11T13:26:29.565Z,13.88
2023-02-11T13:29:51.127Z,12.48
2023-02-11T13:32:58.208Z,17.08
2023-02-11T13:35:59.501Z,13.40
2023-02-11T13:39:02.452Z,13.10
2023-02-11T13:42:04.173Z,14.95
2023-02-11T13:45:17.126Z,18.05
2023-02-11T13:48:26.167Z,14.27
2023-02-11T13:51:35.517Z,11.93
2023-02-11T13:54:38.854Z,15.77
2023-02-11T13:57:40.852Z,16.52
2023-02-11T14:00:43.420Z,11.57
2023-02-11T14:04:23.430Z,10.38
2023-02-11T14:07:48.385Z,14.02
2023-02-11T14:10:51.088Z,11.68
2023-02-11T14:13:52.496Z,11.88
2023-02-11T14:17:00.154Z,13.38
2023-02-11T14:20:04.580Z,14.65
2023-02-11T14:23:06.107Z,17.88
2023-02-11T14:26:22.274Z,16.02
2023-02-11T14:29:23.514Z,12.68
2023-02-11T14:32:33.912Z,12.82
2023-02-11T14:35:39.277Z,10.27
2023-02-11T14:38:46.264Z,12.27
2023-02-11T14:41:48.561Z,11.10
2023-02-11T14:44:50.651Z,12.70
2023-02-11T14:48:12.213Z,12.43
2023-02-11T14:51:14.949Z,11.93
2023-02-11T14:54:23.387Z,13.73
2023-02-11T14:57:24.740Z,12.07
2023-02-11T15:00:26.080Z,13.23
2023-02-11T15:03:33.254Z,13.75
2023-02-11T15:06:34.578Z,13.50
2023-02-11T15:09:43.339Z,13.40
2023-02-11T15:12:47.844Z,10.88
2023-02-11T15:15:52.933Z,17.85
2023-02-11T15:18:56.599Z,14.38
2023-02-11T15:21:58.552Z,15.75
2023-02-11T15:25:00.177Z,14.43
2023-02-11T15:28:01.585Z,12.55
2023-02-11T15:31:14.328Z,12.38
2023-02-11T15:34:15.771Z,14.40
2023-02-11T15:37:20.375Z,14.00
2023-02-11T15:40:23.111Z,14.95
2023-02-11T15:43:24.450Z,14.43
2023-02-11T15:46:31.498Z,15.88
2023-02-11T15:49:33.321Z,16.13
2023-02-11T15:52:34.701Z,14.52
2023-02-11T15:55:35.964Z,11.80
2023-02-11T15:58:40.780Z,13.43
2023-02-11T16:05:03.770Z,15.13
2023-02-11T16:08:22.596Z,19.60
2023-02-11T16:11:30.428Z,18.30
2023-02-11T16:14:33.635Z,16.30
2023-02-11T16:17:35.907Z,20.02
2023-02-11T16:20:37.179Z,15.10
2023-02-11T16:23:39.724Z,14.00
2023-02-11T16:26:43.284Z,16.27
2023-02-11T16:29:45.902Z,13.88
2023-02-11T16:32:47.183Z,13.07
2023-02-11T16:35:48.819Z,15.85
2023-02-11T16:38:50.093Z,15.57
2023-02-11T16:41:52.058Z,13.75
2023-02-11T16:44:53.364Z,13.98
2023-02-11T16:47:54.673Z,16.55
2023-02-11T16:50:56.431Z,12.80
2023-02-11T16:53:57.902Z,16.88
2023-02-11T16:56:59.180Z,11.07
2023-02-11T17:00:00.401Z,11.07
2023-02-11T17:03:01.802Z,18.95
2023-02-11T17:06:05.583Z,15.15
2023-02-11T17:09:08.486Z,14.35
2023-02-11T17:12:09.763Z,11.68
2023-02-11T17:15:11.076Z,17.13
2023-02-11T17:18:13.589Z,18.92
2023-02-11T17:21:15.202Z,17.17
2023-02-11T17:24:17.029Z,16.85
2023-02-11T17:27:21.020Z,19.05
2023-02-11T17:30:22.987Z,18.42
2023-02-11T17:33:24.353Z,15.70
2023-02-11T17:36:25.606Z,24.52
2023-02-11T17:39:27.509Z,17.05
2023-02-11T17:42:29.788Z,16.85
2023-02-11T17:45:31.062Z,18.85
2023-02-11T17:48:32.333Z,20.25
2023-02-11T17:51:34.954Z,18.67
2023-02-11T17:54:37.792Z,20.38
2023-02-11T17:57:39.288Z,14.85
2023-02-11T18:00:40.629Z,19.70
2023-02-11T18:03:41.948Z,20.95
2023-02-11T18:06:43.603Z,18.50
2023-02-11T18:09:44.975Z,16.70
2023-02-11T18:12:46.261Z,11.93
2023-02-11T18:15:47.571Z,16.58
2023-02-11T18:18:49.726Z,13.98
2023-02-11T18:21:51.121Z,15.88
2023-02-11T18:24:52.995Z,15.63
2023-02-11T18:27:54.284Z,16.60
2023-02-11T18:30:59.128Z,12.80
2023-02-11T18:34:01.120Z,12.32
2023-02-11T18:37:02.403Z,17.38
2023-02-11T18:40:03.879Z,15.25
2023-02-11T18:43:05.188Z,14.02
2023-02-11T18:46:08.749Z,17.65
2023-02-11T18:49:13.071Z,18.10
2023-02-11T18:52:14.694Z,19.48
2023-02-11T18:55:16.401Z,20.42
2023-02-11T18:58:18.020Z,23.67
2023-02-11T19:01:21.172Z,18.63
2023-02-11T19:04:23.231Z,20.63
2023-02-11T19:07:25.321Z,24.08
2023-02-11T19:10:27.478Z,24.98
2023-02-11T19:13:28.979Z,23.92
2023-02-11T19:16:30.441Z,20.88
2023-02-11T19:19:32.622Z,21.60
2023-02-11T19:22:34.023Z,20.02
2023-02-11T19:25:36.055Z,21.30
2023-02-11T19:28:37.487Z,19.70
2023-02-11T19:31:39.006Z,18.55
2023-02-11T19:34:43.051Z,20.23
2023-02-11T19:37:45.668Z,18.30
2023-02-11T19:40:54.772Z,21.42
2023-02-11T19:43:56.783Z,22.73
2023-02-11T19:46:58.260Z,24.58
2023-02-11T19:49:59.523Z,20.80
2023-02-11T19:53:02.419Z,24.73
2023-02-11T19:56:08.584Z,23.17
2023-02-11T19:59:10.372Z,22.13
2023-02-11T20:02:12.816Z,21.80
2023-02-11T20:05:14.209Z,20.42
2023-02-11T20:08:17.162Z,17.65
2023-02-11T20:11:18.587Z,22.80
2023-02-11T20:14:20.028Z,26.05
2023-02-11T20:17:21.323Z,25.35
2023-02-11T20:20:22.753Z,21.42
2023-02-11T20:23:24.137Z,18.83
2023-02-11T20:26:25.448Z,18.80
2023-02-11T20:29:27.261Z,18.65
2023-02-11T20:32:30.591Z,18.55
2023-02-11T20:35:33.020Z,24.60
2023-02-11T20:38:34.327Z,27.98
2023-02-11T20:41:36.450Z,22.25
2023-02-11T20:44:38.378Z,22.38
2023-02-11T20:47:39.733Z,24.33
2023-02-11T20:50:41.083Z,22.90
2023-02-11T20:53:43.986Z,23.60
2023-02-11T20:56:47.990Z,21.58
2023-02-11T20:59:49.556Z,19.90
2023-02-11T21:02:52.049Z,23.52
2023-02-11T21:05:57.738Z,15.77
2023-02-11T21:08:59.073Z,27.15
2023-02-11T21:12:00.797Z,21.27
2023-02-11T21:15:05.318Z,20.88
2023-02-11T21:18:06.596Z,19.38
2023-02-11T21:21:07.923Z,22.88
2023-02-11T21:24:10.072Z,23.02
2023-02-11T21:27:11.390Z,22.88
2023-02-11T21:30:14.036Z,21.48
2023-02-11T21:33:15.334Z,25.38
2023-02-11T21:36:16.825Z,23.60
2023-02-11T21:39:19.154Z,20.08
2023-02-11T21:42:20.451Z,21.15
2023-02-11T21:45:22.311Z,23.48
2023-02-11T21:48:26.654Z,24.10
2023-02-11T21:51:27.934Z,24.02
2023-02-11T21:54:31.991Z,24.40
2023-02-11T21:57:33.309Z,28.27
2023-02-11T22:00:34.702Z,24.10
2023-02-11T22:03:36.018Z,22.30
2023-02-11T22:06:37.619Z,26.85
2023-02-11T22:09:39.093Z,27.08
2023-02-11T22:12:40.368Z,27.52
2023-02-11T22:15:41.673Z,27.38
2023-02-11T22:18:46.291Z,21.15
2023-02-11T22:21:47.619Z,23.13
2023-02-11T22:24:49.130Z,21.23
2023-02-11T22:27:50.533Z,16.95
2023-02-11T22:30:52.775Z,18.65
2023-02-11T22:33:54.258Z,20.50
2023-02-11T22:36:55.585Z,21.38
2023-02-11T22:39:56.864Z,26.48
2023-02-11T22:42:58.143Z,41.67
2023-02-11T22:46:00.446Z,25.73
2023-02-11T22:49:01.755Z,21.85
2023-02-11T22:52:03.476Z,21.90
2023-02-11T22:55:04.953Z,20.55
2023-02-11T22:58:06.491Z,17.88
2023-02-11T23:01:07.818Z,19.77
2023-02-11T23:04:11.043Z,22.88
2023-02-11T23:07:13.204Z,20.58
2023-02-11T23:10:14.567Z,17.67
2023-02-11T23:13:15.819Z,18.25
2023-02-11T23:16:18.504Z,17.60
2023-02-11T23:19:19.905Z,22.38
2023-02-11T23:22:21.177Z,19.60
2023-02-11T23:25:22.404Z,20.38
2023-02-11T23:28:23.766Z,21.13
2023-02-11T23:31:27.063Z,22.08
2023-02-11T23:34:28.506Z,20.30
2023-02-11T23:37:29.872Z,19.58
2023-02-11T23:40:31.208Z,22.85
2023-02-11T23:43:32.576Z,22.23
2023-02-11T23:46:33.844Z,21.52
2023-02-11T23:49:35.186Z,20.85
2023-02-11T23:52:36.609Z,23.45
2023-02-11T23:55:41.892Z,18.90
2023-02-11T23:58:44.663Z,22.73
